TimeCST,TemperatureF,Dew PointF,Humidity,Sea Level PressureIn,VisibilityMPH,Wind Direction,Wind SpeedMPH,Gust SpeedMPH,PrecipitationIn,Events,Conditions,WindDirDegrees,DateUTC
12:52 AM,36.0,30.9,82,30.23,-9999.0,NNW,6.9,-,N/A,,Unknown,340,2013-01-17 06:52:00
1:52 AM,34.0,30.0,85,30.27,-9999.0,NNW,6.9,-,N/A,,Unknown,340,2013-01-17 07:52:00
2:52 AM,34.0,30.0,85,30.29,-9999.0,North,6.9,-,N/A,,Unknown,350,2013-01-17 08:52:00
3:52 AM,32.0,28.9,88,30.32,-9999.0,North,6.9,-,N/A,,Unknown,350,2013-01-17 09:52:00
4:52 AM,30.0,27.0,88,30.35,-9999.0,NNW,5.8,-,N/A,,Unknown,340,2013-01-17 10:52:00
5:52 AM,28.0,25.0,88,30.39,-9999.0,NNW,5.8,-,N/A,,Unknown,330,2013-01-17 11:52:00
6:52 AM,28.0,24.1,85,30.43,-9999.0,NNW,5.8,-,N/A,,Unknown,340,2013-01-17 12:52:00
7:52 AM,28.0,25.0,88,30.47,-9999.0,NNW,3.5,-,N/A,,Unknown,330,2013-01-17 13:52:00
8:52 AM,28.0,25.0,88,30.49,-9999.0,North,8.1,-,N/A,,Unknown,10,2013-01-17 14:52:00
9:52 AM,30.9,25.0,79,30.52,-9999.0,North,5.8,-,N/A,,Unknown,10,2013-01-17 15:52:00
10:52 AM,34.0,24.1,67,30.51,-9999.0,Variable,3.5,-,N/A,,Unknown,0,2013-01-17 16:52:00
11:52 AM,36.0,21.9,57,30.49,-9999.0,Calm,Calm,-,N/A,,Unknown,0,2013-01-17 17:52:00
12:52 PM,39.0,19.9,46,30.48,-9999.0,West,6.9,-,N/A,,Unknown,260,2013-01-17 18:52:00
1:52 PM,41.0,19.9,43,30.46,-9999.0,Variable,3.5,-,N/A,,Unknown,0,2013-01-17 19:52:00
2:52 PM,42.1,19.9,41,30.46,-9999.0,Calm,Calm,-,N/A,,Unknown,0,2013-01-17 20:52:00
3:52 PM,43.0,21.0,42,30.46,-9999.0,Variable,3.5,-,N/A,,Unknown,0,2013-01-17 21:52:00
4:52 PM,39.9,21.0,47,30.48,-9999.0,SW,3.5,-,N/A,,Unknown,230,2013-01-17 22:52:00
5:52 PM,32.0,21.0,64,30.49,-9999.0,Calm,Calm,-,N/A,,Unknown,0,2013-01-17 23:52:00
6:52 PM,28.0,21.0,75,30.50,-9999.0,Calm,Calm,-,N/A,,Unknown,0,2013-01-18 00:52:00
7:52 PM,27.0,21.0,78,30.50,-9999.0,Calm,Calm,-,N/A,,Unknown,0,2013-01-18 01:52:00
8:52 PM,26.1,19.9,78,30.50,-9999.0,Calm,Calm,-,N/A,,Unknown,0,2013-01-18 02:52:00
9:52 PM,27.0,21.0,78,30.48,-9999.0,Calm,Calm,-,N/A,,Unknown,0,2013-01-18 03:52:00
10:52 PM,27.0,21.0,78,30.46,-9999.0,Calm,Calm,-,N/A,,Unknown,0,2013-01-18 04:52:00
11:52 PM,24.1,19.9,84,30.46,-9999.0,Calm,Calm,-,N/A,,Unknown,0,2013-01-18 05:52:00